sensor_id;sensor_type;location;lat;lon;timestamp;P1;durP1;ratioP1;P2;durP2;ratioP2
1350;SDS011;669;50.206;9.998;2024-01-30T00:00:17;5.00;;;4.07;;
1350;SDS011;669;50.206;9.998;2024-01-30T00:02:45;3.53;;;3.10;;
1350;SDS011;669;50.206;9.998;2024-01-30T00:05:13;5.10;;;4.47;;
1350;SDS011;669;50.206;9.998;2024-01-30T00:07:41;4.13;;;3.73;;
1350;SDS011;669;50.206;9.998;2024-01-30T00:10:10;5.43;;;4.00;;
1350;SDS011;669;50.206;9.998;2024-01-30T00:12:38;5.80;;;4.10;;
1350;SDS011;669;50.206;9.998;2024-01-30T00:15:06;3.70;;;3.40;;
1350;SDS011;669;50.206;9.998;2024-01-30T00:17:37;4.23;;;3.20;;
1350;SDS011;669;50.206;9.998;2024-01-30T00:20:05;3.60;;;3.30;;
1350;SDS011;669;50.206;9.998;2024-01-30T00:22:35;6.30;;;4.00;;
1350;SDS011;669;50.206;9.998;2024-01-30T00:25:03;7.77;;;4.53;;
1350;SDS011;669;50.206;9.998;2024-01-30T00:27:31;3.70;;;3.40;;
1350;SDS011;669;50.206;9.998;2024-01-30T00:29:59;3.67;;;3.20;;
1350;SDS011;669;50.206;9.998;2024-01-30T00:32:27;4.43;;;3.77;;
1350;SDS011;669;50.206;9.998;2024-01-30T00:34:56;4.20;;;3.70;;
1350;SDS011;669;50.206;9.998;2024-01-30T00:37:25;3.87;;;3.50;;
1350;SDS011;669;50.206;9.998;2024-01-30T00:39:53;3.80;;;3.13;;
1350;SDS011;669;50.206;9.998;2024-01-30T00:42:21;5.67;;;4.40;;
1350;SDS011;669;50.206;9.998;2024-01-30T00:44:50;3.50;;;3.10;;
1350;SDS011;669;50.206;9.998;2024-01-30T00:47:18;4.80;;;3.80;;
1350;SDS011;669;50.206;9.998;2024-01-30T00:49:46;5.20;;;4.17;;
1350;SDS011;669;50.206;9.998;2024-01-30T00:52:15;4.50;;;3.70;;
1350;SDS011;669;50.206;9.998;2024-01-30T00:54:43;4.80;;;3.67;;
1350;SDS011;669;50.206;9.998;2024-01-30T00:57:11;5.40;;;3.87;;
1350;SDS011;669;50.206;9.998;2024-01-30T00:59:39;4.00;;;3.60;;
1350;SDS011;669;50.206;9.998;2024-01-30T01:02:07;6.90;;;4.10;;
1350;SDS011;669;50.206;9.998;2024-01-30T01:04:35;3.07;;;2.80;;
1350;SDS011;669;50.206;9.998;2024-01-30T01:07:03;5.13;;;3.57;;
1350;SDS011;669;50.206;9.998;2024-01-30T01:09:32;3.77;;;3.37;;
1350;SDS011;669;50.206;9.998;2024-01-30T01:12:01;5.77;;;3.77;;
1350;SDS011;669;50.206;9.998;2024-01-30T01:14:29;5.80;;;4.30;;
1350;SDS011;669;50.206;9.998;2024-01-30T01:16:57;3.70;;;3.30;;
1350;SDS011;669;50.206;9.998;2024-01-30T01:19:25;3.70;;;3.40;;
1350;SDS011;669;50.206;9.998;2024-01-30T01:21:53;4.10;;;3.27;;
1350;SDS011;669;50.206;9.998;2024-01-30T01:24:21;7.37;;;4.17;;
1350;SDS011;669;50.206;9.998;2024-01-30T01:26:50;6.10;;;3.90;;
1350;SDS011;669;50.206;9.998;2024-01-30T01:29:18;4.20;;;3.80;;
1350;SDS011;669;50.206;9.998;2024-01-30T01:31:47;4.63;;;3.97;;
1350;SDS011;669;50.206;9.998;2024-01-30T01:34:15;3.30;;;3.00;;
1350;SDS011;669;50.206;9.998;2024-01-30T01:36:43;6.80;;;3.60;;
1350;SDS011;669;50.206;9.998;2024-01-30T01:39:11;4.83;;;3.63;;
1350;SDS011;669;50.206;9.998;2024-01-30T01:41:39;5.50;;;4.27;;
1350;SDS011;669;50.206;9.998;2024-01-30T01:44:08;5.47;;;3.77;;
1350;SDS011;669;50.206;9.998;2024-01-30T01:46:36;3.33;;;3.07;;
1350;SDS011;669;50.206;9.998;2024-01-30T01:49:04;5.73;;;3.83;;
1350;SDS011;669;50.206;9.998;2024-01-30T01:51:33;6.33;;;4.43;;
1350;SDS011;669;50.206;9.998;2024-01-30T01:54:04;4.10;;;3.47;;
1350;SDS011;669;50.206;9.998;2024-01-30T01:56:32;5.33;;;3.83;;
1350;SDS011;669;50.206;9.998;2024-01-30T01:59:04;4.20;;;3.60;;
1350;SDS011;669;50.206;9.998;2024-01-30T02:01:36;4.80;;;3.47;;
1350;SDS011;669;50.206;9.998;2024-01-30T02:04:05;4.30;;;3.93;;
1350;SDS011;669;50.206;9.998;2024-01-30T02:06:34;4.97;;;3.93;;
1350;SDS011;669;50.206;9.998;2024-01-30T02:09:03;4.43;;;4.03;;
1350;SDS011;669;50.206;9.998;2024-01-30T02:11:31;3.57;;;3.30;;
1350;SDS011;669;50.206;9.998;2024-01-30T02:14:02;3.83;;;3.43;;
1350;SDS011;669;50.206;9.998;2024-01-30T02:16:30;4.30;;;3.90;;
1350;SDS011;669;50.206;9.998;2024-01-30T02:18:59;3.60;;;3.30;;
1350;SDS011;669;50.206;9.998;2024-01-30T02:21:29;4.50;;;3.77;;
1350;SDS011;669;50.206;9.998;2024-01-30T02:23:56;4.53;;;3.43;;
1350;SDS011;669;50.206;9.998;2024-01-30T02:26:27;6.13;;;3.47;;
1350;SDS011;669;50.206;9.998;2024-01-30T02:28:54;4.57;;;3.90;;
1350;SDS011;669;50.206;9.998;2024-01-30T02:31:22;7.53;;;4.73;;
1350;SDS011;669;50.206;9.998;2024-01-30T02:33:52;4.50;;;3.63;;
1350;SDS011;669;50.206;9.998;2024-01-30T02:36:20;3.73;;;2.97;;
1350;SDS011;669;50.206;9.998;2024-01-30T02:38:49;5.27;;;3.57;;
1350;SDS011;669;50.206;9.998;2024-01-30T02:41:17;6.53;;;5.87;;
1350;SDS011;669;50.206;9.998;2024-01-30T02:43:45;4.83;;;3.67;;
1350;SDS011;669;50.206;9.998;2024-01-30T02:46:13;3.87;;;3.50;;
1350;SDS011;669;50.206;9.998;2024-01-30T02:48:41;3.93;;;3.40;;
1350;SDS011;669;50.206;9.998;2024-01-30T02:51:09;4.07;;;3.57;;
1350;SDS011;669;50.206;9.998;2024-01-30T02:53:36;5.30;;;3.43;;
1350;SDS011;669;50.206;9.998;2024-01-30T02:56:06;6.80;;;4.60;;
1350;SDS011;669;50.206;9.998;2024-01-30T02:58:36;4.30;;;3.90;;
1350;SDS011;669;50.206;9.998;2024-01-30T03:01:04;3.60;;;3.30;;
1350;SDS011;669;50.206;9.998;2024-01-30T03:03:32;4.80;;;3.60;;
1350;SDS011;669;50.206;9.998;2024-01-30T03:06:02;5.80;;;3.97;;
1350;SDS011;669;50.206;9.998;2024-01-30T03:08:30;5.57;;;3.30;;
1350;SDS011;669;50.206;9.998;2024-01-30T03:10:58;4.30;;;3.67;;
1350;SDS011;669;50.206;9.998;2024-01-30T03:13:27;3.63;;;3.07;;
1350;SDS011;669;50.206;9.998;2024-01-30T03:15:55;5.50;;;4.03;;
1350;SDS011;669;50.206;9.998;2024-01-30T03:18:23;4.40;;;3.80;;
1350;SDS011;669;50.206;9.998;2024-01-30T03:20:51;5.00;;;4.00;;
1350;SDS011;669;50.206;9.998;2024-01-30T03:23:19;4.43;;;4.03;;
1350;SDS011;669;50.206;9.998;2024-01-30T03:25:47;6.23;;;3.90;;
1350;SDS011;669;50.206;9.998;2024-01-30T03:28:15;3.60;;;3.30;;
1350;SDS011;669;50.206;9.998;2024-01-30T03:30:44;4.83;;;4.03;;
1350;SDS011;669;50.206;9.998;2024-01-30T03:33:12;4.03;;;3.37;;
1350;SDS011;669;50.206;9.998;2024-01-30T03:35:40;5.33;;;4.83;;
1350;SDS011;669;50.206;9.998;2024-01-30T03:38:08;6.57;;;3.80;;
1350;SDS011;669;50.206;9.998;2024-01-30T03:40:36;4.77;;;4.30;;
1350;SDS011;669;50.206;9.998;2024-01-30T03:43:04;4.60;;;3.33;;
1350;SDS011;669;50.206;9.998;2024-01-30T03:45:32;4.57;;;3.97;;
1350;SDS011;669;50.206;9.998;2024-01-30T03:48:01;3.67;;;3.37;;
1350;SDS011;669;50.206;9.998;2024-01-30T03:50:30;6.63;;;4.00;;
1350;SDS011;669;50.206;9.998;2024-01-30T03:52:58;4.10;;;3.70;;
1350;SDS011;669;50.206;9.998;2024-01-30T03:55:25;3.60;;;3.30;;
1350;SDS011;669;50.206;9.998;2024-01-30T03:57:53;5.10;;;4.20;;
1350;SDS011;669;50.206;9.998;2024-01-30T04:00:21;4.43;;;3.87;;
1350;SDS011;669;50.206;9.998;2024-01-30T04:02:49;4.80;;;3.37;;
1350;SDS011;669;50.206;9.998;2024-01-30T04:05:19;6.17;;;4.10;;
1350;SDS011;669;50.206;9.998;2024-01-30T04:07:47;5.00;;;3.80;;
1350;SDS011;669;50.206;9.998;2024-01-30T04:10:15;5.03;;;4.30;;
1350;SDS011;669;50.206;9.998;2024-01-30T04:12:43;4.97;;;4.10;;
1350;SDS011;669;50.206;9.998;2024-01-30T04:15:11;4.10;;;3.70;;
1350;SDS011;669;50.206;9.998;2024-01-30T04:17:40;7.87;;;4.90;;
1350;SDS011;669;50.206;9.998;2024-01-30T04:20:09;4.67;;;4.10;;
1350;SDS011;669;50.206;9.998;2024-01-30T04:22:42;5.67;;;4.10;;
1350;SDS011;669;50.206;9.998;2024-01-30T04:25:10;5.00;;;3.93;;
1350;SDS011;669;50.206;9.998;2024-01-30T04:27:38;5.57;;;4.20;;
1350;SDS011;669;50.206;9.998;2024-01-30T04:30:07;5.27;;;4.77;;
1350;SDS011;669;50.206;9.998;2024-01-30T04:32:36;5.63;;;4.40;;
1350;SDS011;669;50.206;9.998;2024-01-30T04:35:04;4.50;;;4.10;;
1350;SDS011;669;50.206;9.998;2024-01-30T04:37:36;6.30;;;5.00;;
1350;SDS011;669;50.206;9.998;2024-01-30T04:40:06;4.43;;;4.03;;
1350;SDS011;669;50.206;9.998;2024-01-30T04:42:36;3.90;;;3.30;;
1350;SDS011;669;50.206;9.998;2024-01-30T04:45:05;4.83;;;4.07;;
1350;SDS011;669;50.206;9.998;2024-01-30T04:47:33;4.07;;;3.47;;
1350;SDS011;669;50.206;9.998;2024-01-30T04:50:01;4.63;;;4.23;;
1350;SDS011;669;50.206;9.998;2024-01-30T04:52:31;4.40;;;3.70;;
1350;SDS011;669;50.206;9.998;2024-01-30T04:54:59;5.50;;;4.37;;
1350;SDS011;669;50.206;9.998;2024-01-30T04:57:28;4.47;;;4.07;;
1350;SDS011;669;50.206;9.998;2024-01-30T04:59:57;6.37;;;4.30;;
1350;SDS011;669;50.206;9.998;2024-01-30T05:02:25;5.77;;;4.50;;
1350;SDS011;669;50.206;9.998;2024-01-30T05:04:53;4.17;;;3.50;;
1350;SDS011;669;50.206;9.998;2024-01-30T05:07:21;5.00;;;4.33;;
1350;SDS011;669;50.206;9.998;2024-01-30T05:09:49;5.10;;;3.80;;
1350;SDS011;669;50.206;9.998;2024-01-30T05:12:18;6.60;;;4.50;;
1350;SDS011;669;50.206;9.998;2024-01-30T05:14:48;6.83;;;4.10;;
1350;SDS011;669;50.206;9.998;2024-01-30T05:17:16;4.47;;;3.80;;
1350;SDS011;669;50.206;9.998;2024-01-30T05:19:44;5.60;;;4.07;;
1350;SDS011;669;50.206;9.998;2024-01-30T05:22:12;6.50;;;4.47;;
1350;SDS011;669;50.206;9.998;2024-01-30T05:24:42;6.50;;;4.63;;
1350;SDS011;669;50.206;9.998;2024-01-30T05:27:10;4.87;;;3.70;;
1350;SDS011;669;50.206;9.998;2024-01-30T05:29:39;4.67;;;3.93;;
1350;SDS011;669;50.206;9.998;2024-01-30T05:32:09;6.10;;;4.30;;
1350;SDS011;669;50.206;9.998;2024-01-30T05:34:37;6.60;;;4.20;;
1350;SDS011;669;50.206;9.998;2024-01-30T05:37:05;4.20;;;3.80;;
1350;SDS011;669;50.206;9.998;2024-01-30T05:39:33;4.00;;;3.70;;
1350;SDS011;669;50.206;9.998;2024-01-30T05:42:02;6.20;;;5.07;;
1350;SDS011;669;50.206;9.998;2024-01-30T05:44:30;5.93;;;4.20;;
1350;SDS011;669;50.206;9.998;2024-01-30T05:46:58;8.43;;;4.30;;
1350;SDS011;669;50.206;9.998;2024-01-30T05:49:27;6.30;;;4.30;;
1350;SDS011;669;50.206;9.998;2024-01-30T05:51:55;4.53;;;4.13;;
1350;SDS011;669;50.206;9.998;2024-01-30T05:54:23;6.13;;;4.77;;
1350;SDS011;669;50.206;9.998;2024-01-30T05:56:51;6.70;;;4.93;;
1350;SDS011;669;50.206;9.998;2024-01-30T05:59:19;7.43;;;5.17;;
1350;SDS011;669;50.206;9.998;2024-01-30T06:01:47;5.53;;;3.77;;
1350;SDS011;669;50.206;9.998;2024-01-30T06:04:15;6.67;;;4.20;;
1350;SDS011;669;50.206;9.998;2024-01-30T06:06:45;4.80;;;3.67;;
1350;SDS011;669;50.206;9.998;2024-01-30T06:09:13;6.80;;;3.83;;
1350;SDS011;669;50.206;9.998;2024-01-30T06:11:41;5.73;;;4.17;;
1350;SDS011;669;50.206;9.998;2024-01-30T06:14:09;5.60;;;4.30;;
1350;SDS011;669;50.206;9.998;2024-01-30T06:16:37;8.20;;;4.90;;
1350;SDS011;669;50.206;9.998;2024-01-30T06:19:05;5.20;;;3.67;;
1350;SDS011;669;50.206;9.998;2024-01-30T06:21:33;9.63;;;4.80;;
1350;SDS011;669;50.206;9.998;2024-01-30T06:24:04;6.60;;;4.77;;
1350;SDS011;669;50.206;9.998;2024-01-30T06:26:32;6.60;;;4.30;;
1350;SDS011;669;50.206;9.998;2024-01-30T06:29:01;5.30;;;4.47;;
1350;SDS011;669;50.206;9.998;2024-01-30T06:31:29;4.83;;;4.00;;
1350;SDS011;669;50.206;9.998;2024-01-30T06:33:57;5.30;;;3.70;;
1350;SDS011;669;50.206;9.998;2024-01-30T06:36:25;4.97;;;4.47;;
1350;SDS011;669;50.206;9.998;2024-01-30T06:38:53;4.50;;;4.10;;
1350;SDS011;669;50.206;9.998;2024-01-30T06:41:22;5.57;;;4.23;;
1350;SDS011;669;50.206;9.998;2024-01-30T06:43:50;5.17;;;4.00;;
1350;SDS011;669;50.206;9.998;2024-01-30T06:46:19;5.07;;;4.07;;
1350;SDS011;669;50.206;9.998;2024-01-30T06:48:47;6.90;;;4.50;;
1350;SDS011;669;50.206;9.998;2024-01-30T06:51:15;5.00;;;4.50;;
1350;SDS011;669;50.206;9.998;2024-01-30T06:53:43;5.70;;;4.97;;
1350;SDS011;669;50.206;9.998;2024-01-30T06:56:11;7.57;;;4.97;;
1350;SDS011;669;50.206;9.998;2024-01-30T06:58:41;6.03;;;5.23;;
1350;SDS011;669;50.206;9.998;2024-01-30T07:01:09;8.37;;;5.10;;
1350;SDS011;669;50.206;9.998;2024-01-30T07:03:38;5.53;;;3.90;;
1350;SDS011;669;50.206;9.998;2024-01-30T07:06:06;4.70;;;3.90;;
1350;SDS011;669;50.206;9.998;2024-01-30T07:08:34;5.27;;;3.90;;
1350;SDS011;669;50.206;9.998;2024-01-30T07:11:03;6.07;;;4.38;;
1350;SDS011;669;50.206;9.998;2024-01-30T07:13:31;5.97;;;4.40;;
1350;SDS011;669;50.206;9.998;2024-01-30T07:16:01;6.47;;;5.17;;
1350;SDS011;669;50.206;9.998;2024-01-30T07:18:29;8.30;;;4.50;;
1350;SDS011;669;50.206;9.998;2024-01-30T07:20:57;5.50;;;4.40;;
1350;SDS011;669;50.206;9.998;2024-01-30T07:23:25;5.70;;;4.33;;
1350;SDS011;669;50.206;9.998;2024-01-30T07:25:53;5.70;;;4.40;;
1350;SDS011;669;50.206;9.998;2024-01-30T07:28:21;4.10;;;3.70;;
1350;SDS011;669;50.206;9.998;2024-01-30T07:30:49;6.37;;;4.57;;
1350;SDS011;669;50.206;9.998;2024-01-30T07:33:18;6.50;;;4.73;;
1350;SDS011;669;50.206;9.998;2024-01-30T07:35:46;8.50;;;4.53;;
1350;SDS011;669;50.206;9.998;2024-01-30T07:38:14;4.40;;;4.00;;
1350;SDS011;669;50.206;9.998;2024-01-30T07:40:42;4.63;;;3.90;;
1350;SDS011;669;50.206;9.998;2024-01-30T07:43:10;4.80;;;4.10;;
1350;SDS011;669;50.206;9.998;2024-01-30T07:45:38;5.70;;;4.60;;
1350;SDS011;669;50.206;9.998;2024-01-30T07:48:07;5.80;;;4.57;;
1350;SDS011;669;50.206;9.998;2024-01-30T07:50:37;5.17;;;4.20;;
1350;SDS011;669;50.206;9.998;2024-01-30T07:53:05;3.93;;;3.63;;
1350;SDS011;669;50.206;9.998;2024-01-30T07:55:33;5.13;;;4.47;;
1350;SDS011;669;50.206;9.998;2024-01-30T07:58:01;6.93;;;5.03;;
1350;SDS011;669;50.206;9.998;2024-01-30T08:00:31;6.30;;;5.10;;
1350;SDS011;669;50.206;9.998;2024-01-30T08:02:59;5.70;;;4.27;;
1350;SDS011;669;50.206;9.998;2024-01-30T08:05:27;6.90;;;4.00;;
1350;SDS011;669;50.206;9.998;2024-01-30T08:07:56;4.80;;;4.40;;
1350;SDS011;669;50.206;9.998;2024-01-30T08:10:24;5.53;;;4.47;;
1350;SDS011;669;50.206;9.998;2024-01-30T08:12:55;7.20;;;5.00;;
1350;SDS011;669;50.206;9.998;2024-01-30T08:15:23;5.33;;;4.60;;
1350;SDS011;669;50.206;9.998;2024-01-30T08:17:51;5.53;;;4.10;;
1350;SDS011;669;50.206;9.998;2024-01-30T08:20:22;7.73;;;4.67;;
1350;SDS011;669;50.206;9.998;2024-01-30T08:22:50;4.00;;;3.70;;
1350;SDS011;669;50.206;9.998;2024-01-30T08:25:19;4.93;;;4.53;;
1350;SDS011;669;50.206;9.998;2024-01-30T08:27:48;6.03;;;4.43;;
1350;SDS011;669;50.206;9.998;2024-01-30T08:30:16;5.57;;;4.20;;
1350;SDS011;669;50.206;9.998;2024-01-30T08:32:44;10.23;;;5.80;;
1350;SDS011;669;50.206;9.998;2024-01-30T08:35:12;4.53;;;4.07;;
1350;SDS011;669;50.206;9.998;2024-01-30T08:37:42;6.67;;;5.43;;
1350;SDS011;669;50.206;9.998;2024-01-30T08:40:10;6.20;;;4.87;;
1350;SDS011;669;50.206;9.998;2024-01-30T08:42:40;5.23;;;4.80;;
1350;SDS011;669;50.206;9.998;2024-01-30T08:45:08;4.50;;;4.00;;
1350;SDS011;669;50.206;9.998;2024-01-30T08:47:37;5.63;;;5.03;;
1350;SDS011;669;50.206;9.998;2024-01-30T08:50:05;7.17;;;5.53;;
1350;SDS011;669;50.206;9.998;2024-01-30T08:52:34;5.53;;;4.50;;
1350;SDS011;669;50.206;9.998;2024-01-30T08:55:03;6.60;;;4.47;;
1350;SDS011;669;50.206;9.998;2024-01-30T08:57:31;5.13;;;4.63;;
1350;SDS011;669;50.206;9.998;2024-01-30T09:00:00;5.93;;;4.60;;
1350;SDS011;669;50.206;9.998;2024-01-30T09:02:33;6.17;;;4.47;;
1350;SDS011;669;50.206;9.998;2024-01-30T09:05:01;8.50;;;5.50;;
1350;SDS011;669;50.206;9.998;2024-01-30T09:07:30;5.60;;;4.53;;
1350;SDS011;669;50.206;9.998;2024-01-30T09:09:58;5.40;;;4.50;;
1350;SDS011;669;50.206;9.998;2024-01-30T09:12:26;6.23;;;5.33;;
1350;SDS011;669;50.206;9.998;2024-01-30T09:14:54;6.40;;;5.80;;
1350;SDS011;669;50.206;9.998;2024-01-30T09:17:23;7.03;;;4.80;;
1350;SDS011;669;50.206;9.998;2024-01-30T09:19:51;6.57;;;5.03;;
1350;SDS011;669;50.206;9.998;2024-01-30T09:22:19;6.40;;;5.67;;
1350;SDS011;669;50.206;9.998;2024-01-30T09:24:47;6.87;;;5.13;;
1350;SDS011;669;50.206;9.998;2024-01-30T09:27:15;5.90;;;5.13;;
1350;SDS011;669;50.206;9.998;2024-01-30T09:29:43;6.53;;;5.93;;
1350;SDS011;669;50.206;9.998;2024-01-30T09:32:11;6.40;;;5.20;;
1350;SDS011;669;50.206;9.998;2024-01-30T09:34:40;6.77;;;5.07;;
1350;SDS011;669;50.206;9.998;2024-01-30T09:37:09;6.73;;;5.17;;
1350;SDS011;669;50.206;9.998;2024-01-30T09:39:37;8.67;;;6.57;;
1350;SDS011;669;50.206;9.998;2024-01-30T09:42:07;12.90;;;10.27;;
1350;SDS011;669;50.206;9.998;2024-01-30T09:44:39;9.37;;;7.50;;
1350;SDS011;669;50.206;9.998;2024-01-30T09:47:10;10.33;;;7.60;;
1350;SDS011;669;50.206;9.998;2024-01-30T09:49:38;10.40;;;7.30;;
1350;SDS011;669;50.206;9.998;2024-01-30T09:52:09;10.30;;;7.50;;
1350;SDS011;669;50.206;9.998;2024-01-30T09:54:38;11.70;;;8.23;;
1350;SDS011;669;50.206;9.998;2024-01-30T09:57:08;8.23;;;7.37;;
1350;SDS011;669;50.206;9.998;2024-01-30T09:59:36;11.50;;;7.70;;
1350;SDS011;669;50.206;9.998;2024-01-30T10:02:04;10.60;;;6.87;;
1350;SDS011;669;50.206;9.998;2024-01-30T10:04:34;6.60;;;6.00;;
1350;SDS011;669;50.206;9.998;2024-01-30T10:07:03;7.47;;;6.33;;
1350;SDS011;669;50.206;9.998;2024-01-30T10:09:32;8.03;;;5.90;;
1350;SDS011;669;50.206;9.998;2024-01-30T10:12:01;8.70;;;6.83;;
1350;SDS011;669;50.206;9.998;2024-01-30T10:14:30;7.23;;;6.50;;
1350;SDS011;669;50.206;9.998;2024-01-30T10:16:59;6.00;;;5.50;;
1350;SDS011;669;50.206;9.998;2024-01-30T10:19:32;6.70;;;5.67;;
1350;SDS011;669;50.206;9.998;2024-01-30T10:22:00;7.13;;;6.37;;
1350;SDS011;669;50.206;9.998;2024-01-30T10:24:29;11.83;;;6.33;;
1350;SDS011;669;50.206;9.998;2024-01-30T10:26:58;7.97;;;6.17;;
1350;SDS011;669;50.206;9.998;2024-01-30T10:29:26;7.20;;;5.87;;
1350;SDS011;669;50.206;9.998;2024-01-30T10:31:58;6.70;;;4.50;;
1350;SDS011;669;50.206;9.998;2024-01-30T10:34:26;5.77;;;5.20;;
1350;SDS011;669;50.206;9.998;2024-01-30T10:36:59;7.80;;;5.97;;
1350;SDS011;669;50.206;9.998;2024-01-30T10:39:34;7.37;;;5.30;;
1350;SDS011;669;50.206;9.998;2024-01-30T10:42:05;6.70;;;6.07;;
1350;SDS011;669;50.206;9.998;2024-01-30T10:44:40;7.47;;;6.43;;
1350;SDS011;669;50.206;9.998;2024-01-30T10:47:16;6.50;;;5.37;;
1350;SDS011;669;50.206;9.998;2024-01-30T10:49:48;9.83;;;6.30;;
1350;SDS011;669;50.206;9.998;2024-01-30T10:52:18;7.40;;;5.93;;
1350;SDS011;669;50.206;9.998;2024-01-30T10:54:49;7.83;;;5.50;;
1350;SDS011;669;50.206;9.998;2024-01-30T10:57:18;5.67;;;4.90;;
1350;SDS011;669;50.206;9.998;2024-01-30T10:59:46;7.23;;;6.20;;
1350;SDS011;669;50.206;9.998;2024-01-30T11:02:15;8.97;;;6.47;;
1350;SDS011;669;50.206;9.998;2024-01-30T11:04:43;7.83;;;6.30;;
1350;SDS011;669;50.206;9.998;2024-01-30T11:07:14;6.87;;;5.47;;
1350;SDS011;669;50.206;9.998;2024-01-30T11:09:51;9.03;;;6.77;;
1350;SDS011;669;50.206;9.998;2024-01-30T11:12:21;7.40;;;6.70;;
1350;SDS011;669;50.206;9.998;2024-01-30T11:14:50;7.13;;;6.43;;
1350;SDS011;669;50.206;9.998;2024-01-30T11:17:39;7.63;;;6.53;;
1350;SDS011;669;50.206;9.998;2024-01-30T11:20:10;11.27;;;7.33;;
1350;SDS011;669;50.206;9.998;2024-01-30T11:22:41;6.83;;;6.13;;
1350;SDS011;669;50.206;9.998;2024-01-30T11:25:12;8.67;;;6.23;;
1350;SDS011;669;50.206;9.998;2024-01-30T11:27:41;7.47;;;6.30;;
1350;SDS011;669;50.206;9.998;2024-01-30T11:30:10;6.33;;;5.70;;
1350;SDS011;669;50.206;9.998;2024-01-30T11:32:57;8.53;;;7.73;;
1350;SDS011;669;50.206;9.998;2024-01-30T11:35:27;8.53;;;7.53;;
1350;SDS011;669;50.206;9.998;2024-01-30T11:37:57;8.43;;;7.50;;
1350;SDS011;669;50.206;9.998;2024-01-30T11:40:27;6.83;;;6.17;;
1350;SDS011;669;50.206;9.998;2024-01-30T11:42:56;8.13;;;7.30;;
1350;SDS011;669;50.206;9.998;2024-01-30T11:45:25;10.33;;;8.57;;
1350;SDS011;669;50.206;9.998;2024-01-30T11:47:54;8.77;;;6.70;;
1350;SDS011;669;50.206;9.998;2024-01-30T11:50:22;9.40;;;8.37;;
1350;SDS011;669;50.206;9.998;2024-01-30T11:52:50;9.57;;;7.67;;
1350;SDS011;669;50.206;9.998;2024-01-30T11:55:18;7.77;;;6.60;;
1350;SDS011;669;50.206;9.998;2024-01-30T11:57:48;8.37;;;6.60;;
1350;SDS011;669;50.206;9.998;2024-01-30T12:00:17;7.77;;;6.93;;
1350;SDS011;669;50.206;9.998;2024-01-30T12:02:48;9.20;;;7.30;;
1350;SDS011;669;50.206;9.998;2024-01-30T12:05:18;12.40;;;6.50;;
1350;SDS011;669;50.206;9.998;2024-01-30T12:07:47;7.67;;;6.90;;
1350;SDS011;669;50.206;9.998;2024-01-30T12:10:15;7.50;;;6.53;;
1350;SDS011;669;50.206;9.998;2024-01-30T12:12:44;7.57;;;6.90;;
1350;SDS011;669;50.206;9.998;2024-01-30T12:15:15;9.27;;;7.17;;
1350;SDS011;669;50.206;9.998;2024-01-30T12:17:43;7.70;;;7.00;;
1350;SDS011;669;50.206;9.998;2024-01-30T12:20:12;7.27;;;6.47;;
1350;SDS011;669;50.206;9.998;2024-01-30T12:22:42;7.70;;;6.00;;
1350;SDS011;669;50.206;9.998;2024-01-30T12:25:10;7.70;;;6.90;;
1350;SDS011;669;50.206;9.998;2024-01-30T12:27:39;10.50;;;6.97;;
1350;SDS011;669;50.206;9.998;2024-01-30T12:30:10;9.90;;;8.33;;
1350;SDS011;669;50.206;9.998;2024-01-30T12:32:41;9.60;;;7.27;;
1350;SDS011;669;50.206;9.998;2024-01-30T12:35:10;10.07;;;6.93;;
1350;SDS011;669;50.206;9.998;2024-01-30T12:37:38;8.60;;;6.63;;
1350;SDS011;669;50.206;9.998;2024-01-30T12:40:07;9.07;;;8.17;;
1350;SDS011;669;50.206;9.998;2024-01-30T12:42:36;8.13;;;7.33;;
1350;SDS011;669;50.206;9.998;2024-01-30T12:45:07;8.63;;;7.80;;
1350;SDS011;669;50.206;9.998;2024-01-30T12:47:34;7.40;;;6.70;;
1350;SDS011;669;50.206;9.998;2024-01-30T12:50:04;8.60;;;7.73;;
1350;SDS011;669;50.206;9.998;2024-01-30T12:52:32;9.33;;;8.00;;
1350;SDS011;669;50.206;9.998;2024-01-30T12:55:00;9.50;;;7.13;;
1350;SDS011;669;50.206;9.998;2024-01-30T12:57:30;7.40;;;6.63;;
1350;SDS011;669;50.206;9.998;2024-01-30T12:59:58;7.27;;;6.57;;
1350;SDS011;669;50.206;9.998;2024-01-30T13:02:26;8.30;;;7.27;;
1350;SDS011;669;50.206;9.998;2024-01-30T13:05:01;8.10;;;6.87;;
1350;SDS011;669;50.206;9.998;2024-01-30T13:07:31;8.23;;;7.40;;
1350;SDS011;669;50.206;9.998;2024-01-30T13:10:00;11.40;;;7.03;;
1350;SDS011;669;50.206;9.998;2024-01-30T13:12:30;6.87;;;6.17;;
1350;SDS011;669;50.206;9.998;2024-01-30T13:14:59;8.03;;;6.97;;
1350;SDS011;669;50.206;9.998;2024-01-30T13:17:29;10.90;;;7.57;;
1350;SDS011;669;50.206;9.998;2024-01-30T13:19:57;8.53;;;7.67;;
1350;SDS011;669;50.206;9.998;2024-01-30T13:22:38;8.37;;;6.97;;
1350;SDS011;669;50.206;9.998;2024-01-30T13:25:06;7.47;;;6.77;;
1350;SDS011;669;50.206;9.998;2024-01-30T13:27:35;7.90;;;7.07;;
1350;SDS011;669;50.206;9.998;2024-01-30T13:30:03;11.73;;;8.70;;
1350;SDS011;669;50.206;9.998;2024-01-30T13:32:32;8.47;;;7.63;;
1350;SDS011;669;50.206;9.998;2024-01-30T13:35:00;8.33;;;7.27;;
1350;SDS011;669;50.206;9.998;2024-01-30T13:37:28;8.30;;;7.53;;
1350;SDS011;669;50.206;9.998;2024-01-30T13:39:58;10.80;;;7.50;;
1350;SDS011;669;50.206;9.998;2024-01-30T13:42:30;9.13;;;6.13;;
1350;SDS011;669;50.206;9.998;2024-01-30T13:44:58;6.87;;;6.17;;
1350;SDS011;669;50.206;9.998;2024-01-30T13:47:26;9.73;;;8.37;;
1350;SDS011;669;50.206;9.998;2024-01-30T13:49:54;9.93;;;7.80;;
1350;SDS011;669;50.206;9.998;2024-01-30T13:52:22;10.07;;;7.57;;
1350;SDS011;669;50.206;9.998;2024-01-30T13:54:59;7.03;;;6.33;;
1350;SDS011;669;50.206;9.998;2024-01-30T13:57:27;8.80;;;7.63;;
1350;SDS011;669;50.206;9.998;2024-01-30T13:59:55;8.50;;;6.90;;
1350;SDS011;669;50.206;9.998;2024-01-30T14:02:23;7.73;;;6.50;;
1350;SDS011;669;50.206;9.998;2024-01-30T14:04:51;9.10;;;7.17;;
1350;SDS011;669;50.206;9.998;2024-01-30T14:07:19;7.17;;;6.47;;
1350;SDS011;669;50.206;9.998;2024-01-30T14:09:47;9.47;;;7.07;;
1350;SDS011;669;50.206;9.998;2024-01-30T14:12:17;7.77;;;7.00;;
1350;SDS011;669;50.206;9.998;2024-01-30T14:14:45;7.37;;;6.60;;
1350;SDS011;669;50.206;9.998;2024-01-30T14:17:12;8.67;;;7.80;;
1350;SDS011;669;50.206;9.998;2024-01-30T14:19:40;9.63;;;7.77;;
1350;SDS011;669;50.206;9.998;2024-01-30T14:22:09;10.73;;;6.93;;
1350;SDS011;669;50.206;9.998;2024-01-30T14:24:37;7.70;;;6.90;;
1350;SDS011;669;50.206;9.998;2024-01-30T14:27:05;6.90;;;6.00;;
1350;SDS011;669;50.206;9.998;2024-01-30T14:29:35;8.57;;;7.60;;
1350;SDS011;669;50.206;9.998;2024-01-30T14:32:04;9.90;;;7.60;;
1350;SDS011;669;50.206;9.998;2024-01-30T14:34:32;8.17;;;7.27;;
1350;SDS011;669;50.206;9.998;2024-01-30T14:37:02;7.40;;;6.70;;
1350;SDS011;669;50.206;9.998;2024-01-30T14:39:30;8.60;;;6.83;;
1350;SDS011;669;50.206;9.998;2024-01-30T14:41:59;7.83;;;7.03;;
1350;SDS011;669;50.206;9.998;2024-01-30T14:44:27;8.20;;;6.87;;
1350;SDS011;669;50.206;9.998;2024-01-30T14:46:56;7.43;;;6.50;;
1350;SDS011;669;50.206;9.998;2024-01-30T14:49:24;8.23;;;6.63;;
1350;SDS011;669;50.206;9.998;2024-01-30T14:51:52;7.30;;;6.60;;
1350;SDS011;669;50.206;9.998;2024-01-30T14:54:20;9.70;;;6.33;;
1350;SDS011;669;50.206;9.998;2024-01-30T14:56:48;7.77;;;5.97;;
1350;SDS011;669;50.206;9.998;2024-01-30T14:59:16;6.83;;;5.90;;
1350;SDS011;669;50.206;9.998;2024-01-30T15:01:43;9.70;;;6.17;;
1350;SDS011;669;50.206;9.998;2024-01-30T15:04:13;9.80;;;6.97;;
1350;SDS011;669;50.206;9.998;2024-01-30T15:06:41;7.23;;;6.53;;
1350;SDS011;669;50.206;9.998;2024-01-30T15:09:11;7.20;;;5.93;;
1350;SDS011;669;50.206;9.998;2024-01-30T15:11:41;8.60;;;6.30;;
1350;SDS011;669;50.206;9.998;2024-01-30T15:14:09;6.60;;;6.00;;
1350;SDS011;669;50.206;9.998;2024-01-30T15:16:37;7.00;;;6.40;;
1350;SDS011;669;50.206;9.998;2024-01-30T15:19:05;6.90;;;6.30;;
1350;SDS011;669;50.206;9.998;2024-01-30T15:21:35;7.50;;;6.70;;
1350;SDS011;669;50.206;9.998;2024-01-30T15:24:03;7.30;;;6.40;;
1350;SDS011;669;50.206;9.998;2024-01-30T15:26:31;8.50;;;6.73;;
1350;SDS011;669;50.206;9.998;2024-01-30T15:28:59;7.20;;;6.53;;
1350;SDS011;669;50.206;9.998;2024-01-30T15:31:27;7.93;;;6.50;;
1350;SDS011;669;50.206;9.998;2024-01-30T15:33:55;6.90;;;6.20;;
1350;SDS011;669;50.206;9.998;2024-01-30T15:36:24;8.50;;;7.43;;
1350;SDS011;669;50.206;9.998;2024-01-30T15:38:53;7.77;;;6.27;;